Time;durP1;ratioP1;P1;durP2;ratioP2;P2;SDS_P1;SDS_P2;PMS_P1;PMS_P2;Temp;Humidity;BMP_temperature;BMP_pressure;BME280_temperature;BME280_humidity;BME280_pressure;Samples;Min_cycle;Max_cycle;Signal;HPM_P1;HPM_P2
2022/01/22 00:00:32;;;;;;;21.35;3.90;;;;;;;;;;4992559;28;20042;-67
2022/01/22 00:02:58;;;;;;;17.38;3.13;;;;;;;;;;4978981;28;20043;-67
2022/01/22 00:05:25;;;;;;;18.00;3.60;;;;;;;;;;4980940;28;20684;-68
2022/01/22 00:07:51;;;;;;;21.95;3.83;;;;;;;;;;4985450;28;20404;-68
2022/01/22 00:10:19;;;;;;;14.48;3.22;;;;;;;;;;4995930;28;20030;-67
2022/01/22 00:15:16;;;;;;;21.13;4.93;;;;;;;;;;4980183;28;20419;-67
2022/01/22 00:17:43;;;;;;;20.60;3.63;;;;;;;;;;4977173;28;20122;-67
2022/01/22 00:20:09;;;;;;;23.80;3.72;;;;;;;;;;4999201;28;20388;-67
2022/01/22 00:22:37;;;;;;;21.88;3.38;;;;;;;;;;4976222;28;20046;-67
2022/01/22 00:25:07;;;;;;;24.80;3.78;;;;;;;;;;4983329;28;20061;-67
2022/01/22 00:27:33;;;;;;;25.38;3.90;;;;;;;;;;4979835;28;20561;-67
2022/01/22 00:29:59;;;;;;;24.30;4.43;;;;;;;;;;4978135;28;20113;-67
2022/01/22 00:32:25;;;;;;;23.65;3.88;;;;;;;;;;4973407;28;20110;-67
2022/01/22 00:34:51;;;;;;;26.75;3.95;;;;;;;;;;4973502;28;20026;-67
2022/01/22 00:37:17;;;;;;;23.55;5.03;;;;;;;;;;4978003;28;20026;-67
2022/01/22 00:39:43;;;;;;;21.65;4.38;;;;;;;;;;4985635;28;20038;-68
2022/01/22 00:42:14;;;;;;;21.25;3.90;;;;;;;;;;4987110;28;20650;-68
2022/01/22 00:44:41;;;;;;;26.42;4.70;;;;;;;;;;4997835;28;20042;-67
2022/01/22 00:47:07;;;;;;;27.73;4.10;;;;;;;;;;4972492;28;20102;-68
2022/01/22 00:49:33;;;;;;;30.73;4.43;;;;;;;;;;4983634;28;20073;-67
2022/01/22 00:52:00;;;;;;;29.27;4.45;;;;;;;;;;4980977;28;20046;-67
2022/01/22 00:54:27;;;;;;;20.27;5.05;;;;;;;;;;4980852;28;20093;-67
2022/01/22 00:56:53;;;;;;;29.13;4.60;;;;;;;;;;4939288;28;1118801;-68
2022/01/22 00:59:19;;;;;;;25.17;4.97;;;;;;;;;;4974803;28;20543;-67
2022/01/22 01:01:45;;;;;;;18.00;4.50;;;;;;;;;;4978028;28;20034;-69
2022/01/22 01:04:11;;;;;;;20.25;5.07;;;;;;;;;;5002340;28;20015;-67
2022/01/22 01:06:41;;;;;;;21.55;5.35;;;;;;;;;;4975934;28;20039;-68
2022/01/22 01:09:08;;;;;;;26.27;6.60;;;;;;;;;;4976342;28;20160;-68
2022/01/22 01:11:39;;;;;;;25.38;5.60;;;;;;;;;;4987545;28;20026;-68
2022/01/22 01:14:08;;;;;;;20.98;5.35;;;;;;;;;;4982705;28;20058;-67
2022/01/22 01:32:56;;;;;;;21.55;5.90;;;;;;;;;;4973975;28;20046;-67
2022/01/22 01:35:22;;;;;;;30.13;6.00;;;;;;;;;;4983528;28;20527;-67
2022/01/22 01:37:51;;;;;;;24.42;6.97;;;;;;;;;;4988203;28;20035;-67
2022/01/22 01:40:20;;;;;;;25.80;5.57;;;;;;;;;;4979496;28;20546;-68
2022/01/22 01:43:10;;;;;;;26.85;6.15;;;;;;;;;;4978167;28;20031;-68
2022/01/22 01:45:35;;;;;;;23.50;5.85;;;;;;;;;;4978508;28;20467;-69
2022/01/22 01:48:07;;;;;;;30.45;6.60;;;;;;;;;;4977613;28;20485;-68
2022/01/22 01:50:36;;;;;;;31.05;7.60;;;;;;;;;;4983532;28;20022;-67
2022/01/22 01:53:56;;;;;;;29.20;6.68;;;;;;;;;;5005611;28;20027;-67
2022/01/22 01:58:15;;;;;;;31.48;7.13;;;;;;;;;;4980294;28;20377;-68
2022/01/22 02:00:41;;;;;;;34.10;7.10;;;;;;;;;;4978133;28;20518;-68
2022/01/22 02:03:09;;;;;;;26.63;6.50;;;;;;;;;;4981250;28;20033;-68
2022/01/22 02:05:36;;;;;;;30.38;6.57;;;;;;;;;;4972992;28;20038;-68
2022/01/22 02:08:03;;;;;;;26.98;6.78;;;;;;;;;;4977148;28;20516;-68
2022/01/22 02:10:33;;;;;;;29.15;8.23;;;;;;;;;;4975321;28;20037;-68
2022/01/22 02:24:08;;;;;;;31.35;7.68;;;;;;;;;;4977394;28;20050;-67
2022/01/22 02:26:34;;;;;;;31.05;7.22;;;;;;;;;;4971245;28;20050;-67
2022/01/22 02:29:00;;;;;;;31.70;7.03;;;;;;;;;;4977115;28;20054;-66
2022/01/22 02:31:38;;;;;;;20.88;7.32;;;;;;;;;;4975863;28;20100;-67
2022/01/22 02:36:37;;;;;;;25.63;6.65;;;;;;;;;;4974080;28;20138;-68
2022/01/22 02:39:18;;;;;;;32.85;6.60;;;;;;;;;;4979568;28;20105;-68
2022/01/22 02:41:47;;;;;;;28.98;7.50;;;;;;;;;;4980399;28;20077;-68
2022/01/22 02:44:25;;;;;;;32.38;7.72;;;;;;;;;;4976373;28;20039;-68
2022/01/22 02:46:52;;;;;;;29.98;6.50;;;;;;;;;;4980139;28;20038;-68
2022/01/22 02:49:18;;;;;;;25.05;7.05;;;;;;;;;;4971760;28;20030;-68
2022/01/22 02:51:44;;;;;;;28.02;7.43;;;;;;;;;;4975432;28;20030;-68
2022/01/22 02:54:11;;;;;;;41.28;8.45;;;;;;;;;;4991592;28;20511;-68
2022/01/22 02:56:37;;;;;;;36.50;6.80;;;;;;;;;;4989915;28;20050;-68
2022/01/22 02:59:03;;;;;;;32.45;7.72;;;;;;;;;;4978619;28;20038;-68
2022/01/22 03:01:29;;;;;;;27.67;7.15;;;;;;;;;;4982731;28;20038;-68
2022/01/22 03:03:55;;;;;;;26.58;7.60;;;;;;;;;;4974359;28;20042;-68
2022/01/22 03:06:21;;;;;;;29.33;7.65;;;;;;;;;;4998418;28;20033;-68
2022/01/22 03:08:48;;;;;;;24.77;7.05;;;;;;;;;;4976489;28;20027;-68
2022/01/22 03:11:25;;;;;;;20.92;5.93;;;;;;;;;;4981955;28;20037;-69
2022/01/22 03:14:31;;;;;;;29.17;6.70;;;;;;;;;;4980704;28;20180;-68
2022/01/22 03:22:29;;;;;;;32.55;6.80;;;;;;;;;;4978634;28;20114;-68
2022/01/22 03:27:40;;;;;;;18.73;6.05;;;;;;;;;;4978178;28;20130;-68
2022/01/22 03:30:06;;;;;;;29.15;6.57;;;;;;;;;;4980628;28;20055;-69
2022/01/22 03:32:39;;;;;;;28.80;5.75;;;;;;;;;;4980332;28;20026;-68
2022/01/22 03:35:13;;;;;;;25.73;5.53;;;;;;;;;;4982817;28;20795;-68
2022/01/22 03:37:40;;;;;;;28.30;5.13;;;;;;;;;;4977750;28;20041;-69
2022/01/22 03:40:08;;;;;;;25.85;4.65;;;;;;;;;;4976359;28;20041;-68
2022/01/22 03:42:36;;;;;;;30.27;5.80;;;;;;;;;;4988008;28;20314;-68
2022/01/22 03:45:03;;;;;;;29.10;6.57;;;;;;;;;;4978602;28;20030;-68
2022/01/22 03:47:29;;;;;;;37.30;6.20;;;;;;;;;;4978450;28;20495;-67
2022/01/22 03:49:55;;;;;;;34.45;5.80;;;;;;;;;;4989127;28;20030;-67
2022/01/22 03:52:21;;;;;;;39.72;6.20;;;;;;;;;;4979674;28;20043;-67
2022/01/22 03:54:47;;;;;;;30.30;6.43;;;;;;;;;;4988118;28;20033;-68
2022/01/22 03:57:13;;;;;;;22.83;5.80;;;;;;;;;;4972367;28;20054;-67
2022/01/22 03:59:39;;;;;;;23.10;4.78;;;;;;;;;;4980495;28;20026;-67
2022/01/22 04:04:58;;;;;;;23.00;5.35;;;;;;;;;;4979930;28;20045;-67
2022/01/22 04:10:10;;;;;;;28.95;6.05;;;;;;;;;;4981259;28;20184;-68
2022/01/22 04:15:11;;;;;;;24.20;5.55;;;;;;;;;;4979135;28;20038;-68
2022/01/22 04:25:54;;;;;;;26.77;6.13;;;;;;;;;;4990437;28;20582;-68
2022/01/22 04:28:20;;;;;;;32.35;6.40;;;;;;;;;;4986314;28;20113;-68
2022/01/22 04:30:47;;;;;;;22.10;6.88;;;;;;;;;;4976191;28;20110;-67
2022/01/22 04:33:13;;;;;;;32.75;7.38;;;;;;;;;;4983962;28;20041;-67
2022/01/22 04:35:39;;;;;;;24.27;7.15;;;;;;;;;;4973017;28;20023;-67
2022/01/22 04:38:05;;;;;;;33.05;7.30;;;;;;;;;;4973198;28;20117;-67
2022/01/22 04:40:31;;;;;;;26.83;7.82;;;;;;;;;;4977426;28;20325;-68
2022/01/22 04:42:59;;;;;;;39.25;8.35;;;;;;;;;;4985468;28;20175;-68
2022/01/22 04:45:44;;;;;;;32.55;7.90;;;;;;;;;;4984346;28;20847;-67
2022/01/22 04:55:47;;;;;;;25.55;7.65;;;;;;;;;;4994587;28;20416;-68
2022/01/22 04:58:13;;;;;;;41.85;10.80;;;;;;;;;;4984955;28;20034;-69
2022/01/22 05:00:41;;;;;;;37.72;9.23;;;;;;;;;;4979026;28;20178;-68
2022/01/22 05:03:07;;;;;;;28.48;8.32;;;;;;;;;;4980106;28;20026;-67
2022/01/22 05:05:33;;;;;;;21.15;8.30;;;;;;;;;;4981546;28;20030;-67
2022/01/22 05:07:59;;;;;;;27.83;8.48;;;;;;;;;;4972869;28;20114;-67
2022/01/22 05:10:25;;;;;;;25.65;7.68;;;;;;;;;;4977297;28;20037;-68
2022/01/22 05:12:53;;;;;;;27.00;8.00;;;;;;;;;;4973886;28;20030;-67
2022/01/22 05:15:19;;;;;;;30.23;7.38;;;;;;;;;;4976270;28;20038;-68
2022/01/22 05:17:46;;;;;;;27.63;7.95;;;;;;;;;;4987880;28;20113;-69
2022/01/22 05:20:19;;;;;;;26.95;6.20;;;;;;;;;;4981726;28;20085;-68
2022/01/22 05:22:55;;;;;;;20.17;6.75;;;;;;;;;;4978037;28;20070;-68
2022/01/22 05:25:42;;;;;;;24.05;6.10;;;;;;;;;;4992762;28;20121;-68
2022/01/22 05:28:46;;;;;;;30.77;5.47;;;;;;;;;;4973692;28;20022;-68
2022/01/22 05:39:19;;;;;;;18.67;4.72;;;;;;;;;;4983676;28;20562;-68
2022/01/22 05:41:48;;;;;;;14.95;3.97;;;;;;;;;;4980817;28;20149;-68
2022/01/22 05:44:14;;;;;;;20.98;3.95;;;;;;;;;;4974182;28;21375;-68
2022/01/22 05:46:40;;;;;;;24.48;4.43;;;;;;;;;;4985278;28;20026;-67
2022/01/22 05:49:06;;;;;;;19.38;4.38;;;;;;;;;;4980645;28;20023;-67
2022/01/22 05:51:34;;;;;;;17.00;4.50;;;;;;;;;;4992196;28;20488;-67
2022/01/22 05:59:37;;;;;;;16.98;3.80;;;;;;;;;;4973727;28;20057;-67
2022/01/22 06:02:07;;;;;;;26.67;4.63;;;;;;;;;;4986718;28;20230;-67
2022/01/22 06:04:33;;;;;;;18.38;5.07;;;;;;;;;;4985310;28;20041;-68
2022/01/22 06:07:00;;;;;;;15.73;5.00;;;;;;;;;;4981788;28;20018;-68
2022/01/22 06:09:26;;;;;;;24.83;4.75;;;;;;;;;;4975730;28;20027;-69
2022/01/22 06:14:34;;;;;;;15.38;3.90;;;;;;;;;;4981231;28;20023;-68
2022/01/22 06:17:00;;;;;;;23.27;4.40;;;;;;;;;;4971326;28;20038;-68
2022/01/22 06:19:26;;;;;;;20.88;4.75;;;;;;;;;;4981275;28;20165;-68
2022/01/22 06:21:52;;;;;;;29.27;3.92;;;;;;;;;;4977210;28;20113;-67
2022/01/22 06:24:19;;;;;;;21.67;4.82;;;;;;;;;;4984607;28;20034;-68
2022/01/22 06:26:45;;;;;;;23.83;4.35;;;;;;;;;;4999034;28;20451;-68
2022/01/22 06:29:11;;;;;;;20.55;5.00;;;;;;;;;;4990437;28;20049;-68
2022/01/22 06:31:37;;;;;;;17.13;3.78;;;;;;;;;;4992658;28;20105;-68
2022/01/22 06:34:04;;;;;;;18.15;3.80;;;;;;;;;;4985784;28;20034;-68
2022/01/22 06:36:30;;;;;;;21.23;3.72;;;;;;;;;;4973622;28;20045;-68
2022/01/22 06:39:08;;;;;;;14.82;3.58;;;;;;;;;;4986684;28;20050;-68
2022/01/22 06:41:44;;;;;;;15.07;3.65;;;;;;;;;;4986465;28;20023;-66
2022/01/22 06:44:10;;;;;;;21.25;3.50;;;;;;;;;;4983237;28;20042;-67
2022/01/22 06:46:36;;;;;;;20.55;4.07;;;;;;;;;;4983417;28;20038;-66
2022/01/22 06:49:03;;;;;;;14.35;2.65;;;;;;;;;;4975222;28;20173;-67
2022/01/22 06:51:29;;;;;;;12.32;2.28;;;;;;;;;;4979412;28;20034;-67
2022/01/22 06:53:55;;;;;;;17.38;2.80;;;;;;;;;;4981935;28;20400;-66
2022/01/22 06:56:22;;;;;;;12.80;2.25;;;;;;;;;;4991798;28;20116;-66
2022/01/22 06:58:51;;;;;;;16.25;1.92;;;;;;;;;;4971087;28;20031;-66
2022/01/22 07:01:17;;;;;;;13.20;2.78;;;;;;;;;;4975885;28;20049;-66
2022/01/22 07:03:43;;;;;;;13.02;2.70;;;;;;;;;;4989861;28;20092;-66
2022/01/22 07:06:09;;;;;;;12.55;2.55;;;;;;;;;;4981863;28;20110;-67
2022/01/22 07:08:35;;;;;;;9.10;1.85;;;;;;;;;;4988080;28;21048;-68
2022/01/22 07:11:01;;;;;;;16.50;2.53;;;;;;;;;;4979293;28;20076;-66
2022/01/22 07:13:27;;;;;;;12.80;2.40;;;;;;;;;;4987158;28;20086;-67
2022/01/22 07:15:53;;;;;;;16.48;3.58;;;;;;;;;;4983286;28;20053;-67
2022/01/22 07:18:19;;;;;;;10.68;2.97;;;;;;;;;;4980917;28;20323;-66
2022/01/22 07:20:45;;;;;;;12.75;2.50;;;;;;;;;;4983647;28;20028;-67
2022/01/22 07:25:41;;;;;;;9.77;2.20;;;;;;;;;;4978484;28;20034;-67
2022/01/22 07:28:07;;;;;;;18.63;2.85;;;;;;;;;;4985021;28;20072;-66
2022/01/22 07:30:33;;;;;;;15.55;2.90;;;;;;;;;;4991793;28;20037;-67
2022/01/22 07:32:59;;;;;;;18.75;3.08;;;;;;;;;;4984338;28;20038;-67
2022/01/22 07:35:25;;;;;;;17.45;2.67;;;;;;;;;;4982478;28;20019;-67
2022/01/22 07:37:51;;;;;;;12.57;2.85;;;;;;;;;;4981927;28;20030;-67
2022/01/22 07:40:18;;;;;;;14.48;2.92;;;;;;;;;;4993773;28;20038;-67
2022/01/22 07:42:44;;;;;;;14.43;3.70;;;;;;;;;;4990478;28;21239;-67
2022/01/22 07:45:10;;;;;;;15.63;4.03;;;;;;;;;;5018214;28;20034;-67
2022/01/22 07:47:37;;;;;;;15.80;4.65;;;;;;;;;;4985114;28;20039;-67
2022/01/22 07:50:05;;;;;;;16.67;4.85;;;;;;;;;;4991349;28;20054;-67
2022/01/22 07:52:31;;;;;;;17.17;4.60;;;;;;;;;;4999945;28;20033;-66
2022/01/22 07:54:57;;;;;;;15.98;5.00;;;;;;;;;;5000793;28;20046;-67
2022/01/22 07:57:23;;;;;;;18.27;5.18;;;;;;;;;;4991921;28;20062;-67
2022/01/22 07:59:49;;;;;;;20.35;6.40;;;;;;;;;;4990211;28;20027;-66
2022/01/22 08:02:16;;;;;;;24.20;5.82;;;;;;;;;;4979908;28;20194;-67
2022/01/22 08:04:42;;;;;;;18.38;6.68;;;;;;;;;;4973829;28;20030;-67
2022/01/22 08:07:27;;;;;;;24.08;6.60;;;;;;;;;;4979145;28;20014;-67
2022/01/22 08:09:53;;;;;;;25.35;6.45;;;;;;;;;;5007971;28;20026;-67
2022/01/22 08:12:20;;;;;;;19.35;5.85;;;;;;;;;;4998718;28;20499;-66
2022/01/22 08:14:46;;;;;;;16.08;5.13;;;;;;;;;;4983379;28;20081;-67
2022/01/22 08:17:12;;;;;;;22.20;6.13;;;;;;;;;;4978763;28;20034;-67
2022/01/22 08:19:38;;;;;;;18.42;6.05;;;;;;;;;;4981602;28;20027;-67
2022/01/22 08:22:04;;;;;;;16.77;6.22;;;;;;;;;;4973194;28;20081;-67
2022/01/22 08:24:31;;;;;;;17.88;6.95;;;;;;;;;;4978795;28;20034;-66
2022/01/22 08:27:31;;;;;;;21.55;7.50;;;;;;;;;;4978723;28;20086;-69
2022/01/22 08:29:57;;;;;;;32.55;9.18;;;;;;;;;;4973378;28;20030;-68
2022/01/22 08:37:35;;;;;;;26.10;9.65;;;;;;;;;;4973419;28;20428;-66
2022/01/22 08:40:02;;;;;;;22.67;9.23;;;;;;;;;;4973176;28;20031;-67
2022/01/22 08:42:28;;;;;;;25.10;10.23;;;;;;;;;;4982427;28;20031;-67
2022/01/22 08:44:54;;;;;;;24.67;10.13;;;;;;;;;;4972693;28;20097;-66
2022/01/22 08:47:21;;;;;;;25.48;11.38;;;;;;;;;;4979930;28;20046;-67
2022/01/22 08:49:47;;;;;;;30.38;11.05;;;;;;;;;;4990362;28;20510;-67
2022/01/22 08:52:15;;;;;;;29.95;13.55;;;;;;;;;;4973177;28;20082;-67
2022/01/22 08:54:42;;;;;;;26.48;13.50;;;;;;;;;;4972771;28;20058;-67
2022/01/22 08:57:08;;;;;;;27.30;15.07;;;;;;;;;;4973247;28;20125;-67
2022/01/22 08:59:34;;;;;;;29.92;16.55;;;;;;;;;;5011353;28;20033;-66
2022/01/22 09:02:01;;;;;;;33.58;16.50;;;;;;;;;;5000311;28;20049;-67
2022/01/22 09:04:27;;;;;;;31.52;14.63;;;;;;;;;;4984596;28;20047;-67
2022/01/22 09:06:54;;;;;;;36.50;15.02;;;;;;;;;;4982634;28;20114;-66
2022/01/22 09:09:21;;;;;;;30.13;13.20;;;;;;;;;;4987326;28;20105;-67
2022/01/22 09:11:47;;;;;;;25.10;11.20;;;;;;;;;;4982581;28;20039;-67
2022/01/22 09:14:14;;;;;;;23.10;7.93;;;;;;;;;;4980627;28;20069;-68
2022/01/22 09:16:40;;;;;;;24.63;8.80;;;;;;;;;;4997214;28;20038;-68
2022/01/22 09:19:10;;;;;;;25.77;8.93;;;;;;;;;;4985547;28;20058;-69
2022/01/22 09:21:36;;;;;;;22.85;10.25;;;;;;;;;;4988007;28;20035;-67
2022/01/22 09:24:02;;;;;;;26.45;9.75;;;;;;;;;;4992105;28;20488;-67
2022/01/22 09:26:29;;;;;;;35.63;10.18;;;;;;;;;;4987835;28;20437;-68
2022/01/22 09:28:57;;;;;;;24.38;11.65;;;;;;;;;;4975169;28;20031;-67
2022/01/22 09:31:23;;;;;;;40.90;13.27;;;;;;;;;;4992904;28;20065;-66
2022/01/22 09:33:50;;;;;;;30.90;15.57;;;;;;;;;;5010985;28;20025;-66
2022/01/22 09:36:16;;;;;;;30.73;14.00;;;;;;;;;;5011089;28;20025;-67
2022/01/22 09:38:42;;;;;;;27.80;14.95;;;;;;;;;;5009773;28;20030;-67
2022/01/22 09:41:08;;;;;;;41.58;18.05;;;;;;;;;;4994813;28;20038;-67
2022/01/22 09:43:34;;;;;;;33.70;16.10;;;;;;;;;;4972090;28;20425;-67
2022/01/22 09:46:00;;;;;;;31.33;16.42;;;;;;;;;;4986697;28;20476;-67
2022/01/22 09:48:26;;;;;;;27.48;16.65;;;;;;;;;;5015779;28;20483;-67
2022/01/22 09:50:52;;;;;;;28.85;15.43;;;;;;;;;;5010839;28;20026;-67
2022/01/22 09:53:19;;;;;;;29.80;15.30;;;;;;;;;;5008238;28;20033;-67
2022/01/22 09:55:46;;;;;;;32.67;13.73;;;;;;;;;;4975174;28;20054;-67
2022/01/22 09:58:12;;;;;;;29.83;13.65;;;;;;;;;;4986880;28;20042;-67
2022/01/22 10:00:38;;;;;;;27.83;13.02;;;;;;;;;;4987934;28;20446;-67
2022/01/22 10:03:13;;;;;;;24.52;11.45;;;;;;;;;;5005365;28;20183;-67
2022/01/22 10:05:40;;;;;;;22.77;10.85;;;;;;;;;;5010361;28;20026;-69
2022/01/22 10:08:24;;;;;;;24.38;10.95;;;;;;;;;;4984569;28;20480;-67
2022/01/22 10:10:50;;;;;;;22.48;10.18;;;;;;;;;;4981273;28;20046;-68
2022/01/22 10:13:37;;;;;;;22.58;9.65;;;;;;;;;;4976223;28;20042;-68
2022/01/22 10:16:13;;;;;;;23.80;9.88;;;;;;;;;;4982397;28;20115;-68
2022/01/22 10:18:39;;;;;;;19.92;9.98;;;;;;;;;;4989966;28;20037;-67
2022/01/22 10:21:09;;;;;;;24.80;10.38;;;;;;;;;;4988851;28;20088;-66
2022/01/22 10:23:39;;;;;;;26.30;8.88;;;;;;;;;;4976015;28;20041;-67
2022/01/22 10:26:08;;;;;;;20.60;8.83;;;;;;;;;;4977461;28;20109;-67
2022/01/22 10:28:42;;;;;;;24.17;8.60;;;;;;;;;;4990210;28;20042;-67
2022/01/22 10:31:18;;;;;;;16.05;8.25;;;;;;;;;;4990519;28;20060;-68
2022/01/22 10:33:44;;;;;;;15.52;7.85;;;;;;;;;;4990840;28;20030;-68
2022/01/22 10:36:12;;;;;;;17.45;6.80;;;;;;;;;;4973517;28;20050;-68
2022/01/22 10:38:59;;;;;;;17.13;5.72;;;;;;;;;;4973786;28;20031;-67
2022/01/22 10:41:35;;;;;;;16.98;5.50;;;;;;;;;;5007935;28;20470;-67
2022/01/22 10:44:02;;;;;;;18.20;5.60;;;;;;;;;;5013988;28;20092;-67
2022/01/22 10:48:59;;;;;;;14.77;5.63;;;;;;;;;;4994474;28;20030;-67
2022/01/22 10:51:26;;;;;;;20.05;6.00;;;;;;;;;;4984442;28;20539;-67
2022/01/22 10:53:58;;;;;;;17.48;6.00;;;;;;;;;;4984657;28;20029;-67
2022/01/22 10:56:25;;;;;;;19.23;7.15;;;;;;;;;;4976914;28;20507;-68
2022/01/22 10:58:52;;;;;;;20.20;6.68;;;;;;;;;;4990104;28;20059;-67
2022/01/22 11:01:18;;;;;;;17.23;5.95;;;;;;;;;;4974769;28;20041;-66
2022/01/22 11:03:44;;;;;;;15.50;6.15;;;;;;;;;;4974726;28;20144;-67
2022/01/22 11:06:24;;;;;;;16.75;6.00;;;;;;;;;;4974102;28;20031;-67
2022/01/22 11:08:50;;;;;;;15.15;5.60;;;;;;;;;;4974493;28;20039;-67
2022/01/22 11:11:16;;;;;;;13.27;5.55;;;;;;;;;;4979824;28;20125;-67
2022/01/22 11:13:43;;;;;;;15.68;5.57;;;;;;;;;;4993154;28;20026;-67
2022/01/22 11:16:10;;;;;;;12.30;4.95;;;;;;;;;;4997148;28;20046;-67
2022/01/22 11:18:38;;;;;;;12.70;5.97;;;;;;;;;;4979147;28;20101;-67
2022/01/22 11:21:05;;;;;;;19.25;5.35;;;;;;;;;;4981035;28;20122;-67
2022/01/22 11:23:34;;;;;;;16.05;5.75;;;;;;;;;;4982668;28;20044;-67
2022/01/22 11:26:01;;;;;;;16.52;5.65;;;;;;;;;;4973978;28;20066;-67
2022/01/22 11:28:27;;;;;;;13.27;6.63;;;;;;;;;;4984500;28;20049;-66
2022/01/22 11:30:54;;;;;;;12.63;6.97;;;;;;;;;;4995461;28;20030;-67
2022/01/22 11:33:21;;;;;;;17.98;6.38;;;;;;;;;;4991925;28;20545;-68
2022/01/22 11:35:56;;;;;;;15.70;5.40;;;;;;;;;;4993723;28;20027;-68
2022/01/22 11:38:31;;;;;;;14.85;4.30;;;;;;;;;;4988548;28;20031;-67
2022/01/22 11:41:04;;;;;;;15.27;5.65;;;;;;;;;;4974035;28;20057;-67
2022/01/22 11:46:37;;;;;;;12.75;4.43;;;;;;;;;;4966268;28;20434;-66
2022/01/22 11:49:08;;;;;;;14.40;4.72;;;;;;;;;;5008689;28;20056;-67
2022/01/22 11:51:34;;;;;;;18.17;4.78;;;;;;;;;;4984256;28;20495;-67
2022/01/22 11:54:01;;;;;;;10.82;4.72;;;;;;;;;;4978274;28;20039;-67
2022/01/22 11:56:31;;;;;;;18.67;5.30;;;;;;;;;;4975412;28;20058;-67
2022/01/22 11:59:02;;;;;;;11.13;4.38;;;;;;;;;;5001018;28;20062;-67
2022/01/22 12:01:50;;;;;;;14.18;5.13;;;;;;;;;;4981011;28;20035;-67
2022/01/22 12:04:17;;;;;;;16.10;5.20;;;;;;;;;;4973833;28;20031;-67
2022/01/22 12:07:04;;;;;;;20.92;5.78;;;;;;;;;;4991958;28;20030;-67
2022/01/22 12:09:51;;;;;;;16.63;5.40;;;;;;;;;;4973907;28;20031;-67
2022/01/22 12:15:07;;;;;;;17.63;6.13;;;;;;;;;;4978461;28;20054;-68
2022/01/22 12:18:02;;;;;;;15.65;5.85;;;;;;;;;;4991963;28;20069;-68
2022/01/22 12:21:30;;;;;;;19.45;6.68;;;;;;;;;;4981545;28;20050;-67
2022/01/22 12:23:30;;;;;;;15.63;6.88;;;;;;;;;;4990125;28;20034;-67
2022/01/22 12:25:57;;;;;;;15.25;6.93;;;;;;;;;;4978655;28;20030;-67
2022/01/22 12:28:44;;;;;;;18.80;7.32;;;;;;;;;;4980848;28;20124;-67
2022/01/22 12:31:15;;;;;;;18.30;7.50;;;;;;;;;;4985138;28;20148;-67
2022/01/22 12:33:41;;;;;;;17.27;8.45;;;;;;;;;;4976735;28;20027;-67
2022/01/22 12:36:17;;;;;;;13.10;7.60;;;;;;;;;;4975427;28;20492;-67
2022/01/22 12:38:49;;;;;;;25.13;7.72;;;;;;;;;;4975765;28;20045;-67
2022/01/22 12:42:01;;;;;;;16.15;7.88;;;;;;;;;;4985078;28;20034;-67
2022/01/22 12:44:04;;;;;;;20.77;8.52;;;;;;;;;;4975446;28;20041;-67
2022/01/22 12:46:31;;;;;;;17.33;8.30;;;;;;;;;;4983601;28;20132;-67
2022/01/22 12:48:57;;;;;;;18.90;8.35;;;;;;;;;;4984862;28;20031;-67
2022/01/22 12:51:25;;;;;;;25.08;8.95;;;;;;;;;;4987137;28;20033;-67
2022/01/22 12:53:51;;;;;;;18.63;9.20;;;;;;;;;;5004025;28;20079;-67
2022/01/22 12:59:01;;;;;;;23.48;9.52;;;;;;;;;;4986033;28;20057;-67
2022/01/22 13:01:29;;;;;;;24.90;11.60;;;;;;;;;;4978999;28;20495;-67
2022/01/22 13:03:56;;;;;;;23.05;10.32;;;;;;;;;;4996373;28;20455;-68
2022/01/22 13:06:25;;;;;;;18.83;9.15;;;;;;;;;;4989510;28;20039;-67
2022/01/22 13:08:55;;;;;;;23.70;10.15;;;;;;;;;;4972378;28;20019;-68
2022/01/22 13:11:25;;;;;;;23.20;10.30;;;;;;;;;;4974687;28;20400;-68
2022/01/22 13:13:51;;;;;;;24.88;10.50;;;;;;;;;;4973765;28;20054;-68
2022/01/22 13:16:17;;;;;;;22.48;9.43;;;;;;;;;;4975350;28;20038;-68
2022/01/22 13:18:44;;;;;;;23.13;10.32;;;;;;;;;;4977556;28;20118;-68
2022/01/22 13:21:10;;;;;;;20.63;10.77;;;;;;;;;;4994426;28;20109;-68
2022/01/22 13:23:37;;;;;;;28.13;11.40;;;;;;;;;;4984051;28;20053;-67
2022/01/22 13:26:03;;;;;;;24.08;11.23;;;;;;;;;;4985872;28;20034;-68
2022/01/22 13:28:32;;;;;;;22.60;9.88;;;;;;;;;;4983812;28;20045;-69
2022/01/22 13:31:03;;;;;;;25.50;10.20;;;;;;;;;;4975884;28;20030;-67
2022/01/22 13:33:50;;;;;;;22.00;10.18;;;;;;;;;;4980687;28;20095;-67
2022/01/22 13:36:32;;;;;;;22.38;9.82;;;;;;;;;;4988826;28;20049;-66
2022/01/22 13:39:37;;;;;;;21.83;10.27;;;;;;;;;;4989933;28;20031;-67
2022/01/22 13:45:07;;;;;;;19.45;9.85;;;;;;;;;;4976963;28;20186;-67
2022/01/22 13:47:57;;;;;;;18.20;9.88;;;;;;;;;;4975689;28;20035;-67
2022/01/22 13:50:23;;;;;;;21.75;10.40;;;;;;;;;;4998939;28;20030;-67
2022/01/22 13:52:50;;;;;;;21.00;9.90;;;;;;;;;;4974055;28;20125;-67
2022/01/22 13:55:16;;;;;;;21.60;10.55;;;;;;;;;;4977249;28;20113;-67
2022/01/22 13:57:44;;;;;;;30.00;10.98;;;;;;;;;;4983220;28;20050;-67
2022/01/22 14:00:29;;;;;;;25.52;10.15;;;;;;;;;;4989723;28;20174;-68
2022/01/22 14:03:21;;;;;;;19.98;10.68;;;;;;;;;;4986541;28;20109;-67
2022/01/22 14:05:53;;;;;;;26.27;10.80;;;;;;;;;;4972224;28;20070;-69
2022/01/22 14:08:29;;;;;;;23.70;11.27;;;;;;;;;;4990770;28;20065;-67
2022/01/22 14:11:12;;;;;;;25.85;11.85;;;;;;;;;;4988756;28;20126;-67
2022/01/22 14:13:40;;;;;;;24.40;11.10;;;;;;;;;;4988513;28;20098;-67
2022/01/22 14:16:22;;;;;;;18.33;11.65;;;;;;;;;;4981268;28;20030;-67
2022/01/22 14:18:48;;;;;;;24.77;12.00;;;;;;;;;;4980739;28;20070;-68
2022/01/22 14:21:20;;;;;;;26.05;12.75;;;;;;;;;;4982149;28;20042;-67
2022/01/22 14:23:49;;;;;;;31.25;13.10;;;;;;;;;;4986237;28;20063;-67
2022/01/22 14:26:42;;;;;;;25.20;13.18;;;;;;;;;;4985054;28;20510;-67
2022/01/22 14:29:14;;;;;;;31.42;13.60;;;;;;;;;;4986636;28;20050;-68
2022/01/22 14:31:42;;;;;;;29.27;14.85;;;;;;;;;;4972560;28;20031;-66
2022/01/22 14:34:13;;;;;;;28.65;14.90;;;;;;;;;;4971130;28;20033;-68
2022/01/22 14:36:42;;;;;;;27.73;15.07;;;;;;;;;;4971483;28;20038;-67
2022/01/22 14:44:41;;;;;;;33.33;17.40;;;;;;;;;;4995738;28;20050;-68
2022/01/22 14:47:24;;;;;;;26.98;16.80;;;;;;;;;;4971330;28;20041;-67
2022/01/22 14:49:51;;;;;;;32.22;17.33;;;;;;;;;;4971001;28;20027;-68
2022/01/22 14:52:21;;;;;;;34.90;16.63;;;;;;;;;;4973351;28;20090;-66
2022/01/22 14:54:48;;;;;;;30.93;17.73;;;;;;;;;;4985755;28;20026;-68
2022/01/22 14:57:15;;;;;;;40.33;17.88;;;;;;;;;;4990822;28;20046;-68
2022/01/22 14:59:42;;;;;;;32.03;18.35;;;;;;;;;;4990711;28;20396;-68
2022/01/22 15:02:09;;;;;;;34.72;18.92;;;;;;;;;;4976464;28;20015;-68
2022/01/22 15:04:36;;;;;;;42.42;17.98;;;;;;;;;;4991457;28;20489;-68
2022/01/22 15:07:03;;;;;;;32.80;16.92;;;;;;;;;;4972022;28;20065;-68
2022/01/22 15:09:30;;;;;;;32.80;17.70;;;;;;;;;;4979917;28;20030;-68
2022/01/22 15:11:57;;;;;;;33.63;17.33;;;;;;;;;;4978401;28;20042;-67
2022/01/22 15:14:26;;;;;;;33.83;19.13;;;;;;;;;;4969440;28;20046;-67
2022/01/22 15:17:14;;;;;;;34.38;17.75;;;;;;;;;;4975201;28;20026;-67
2022/01/22 15:19:39;;;;;;;33.20;19.77;;;;;;;;;;4991466;28;20419;-67
2022/01/22 15:22:09;;;;;;;39.80;19.85;;;;;;;;;;4977372;28;20030;-67
2022/01/22 15:24:36;;;;;;;29.15;19.50;;;;;;;;;;4971631;28;20480;-67
2022/01/22 15:27:02;;;;;;;44.72;21.65;;;;;;;;;;4983882;28;20195;-67
2022/01/22 15:29:29;;;;;;;37.20;20.77;;;;;;;;;;4973639;28;20057;-67
2022/01/22 15:36:55;;;;;;;37.70;20.95;;;;;;;;;;4980701;28;21421;-67
2022/01/22 15:39:21;;;;;;;37.85;19.40;;;;;;;;;;4976530;28;20539;-67
2022/01/22 15:41:49;;;;;;;34.30;19.10;;;;;;;;;;4981581;28;20030;-67
2022/01/22 15:44:15;;;;;;;41.58;18.88;;;;;;;;;;4983795;28;20027;-68
2022/01/22 15:46:44;;;;;;;39.20;20.58;;;;;;;;;;4974753;28;20074;-66
2022/01/22 15:49:16;;;;;;;42.25;19.60;;;;;;;;;;4973609;28;20053;-66
2022/01/22 15:51:47;;;;;;;36.83;19.23;;;;;;;;;;4980706;28;20030;-67
2022/01/22 15:54:13;;;;;;;36.15;19.73;;;;;;;;;;4986755;28;20051;-67
2022/01/22 15:56:41;;;;;;;48.75;19.60;;;;;;;;;;4976420;28;20051;-67
2022/01/22 15:59:07;;;;;;;36.63;19.20;;;;;;;;;;5004467;28;20522;-67
2022/01/22 16:01:34;;;;;;;32.10;18.25;;;;;;;;;;4974155;28;20030;-67
2022/01/22 16:04:01;;;;;;;36.80;19.92;;;;;;;;;;4973437;28;20121;-68
2022/01/22 16:06:37;;;;;;;39.03;18.45;;;;;;;;;;4991522;28;20054;-67
2022/01/22 16:09:15;;;;;;;35.05;18.50;;;;;;;;;;5020048;28;20027;-68
2022/01/22 16:11:41;;;;;;;34.30;17.73;;;;;;;;;;4974514;28;20054;-67
2022/01/22 16:14:09;;;;;;;36.38;17.33;;;;;;;;;;4989545;28;20030;-66
2022/01/22 16:16:37;;;;;;;32.55;17.08;;;;;;;;;;4977934;28;20113;-67
2022/01/22 16:19:03;;;;;;;39.55;18.85;;;;;;;;;;4973399;28;20097;-67
2022/01/22 16:21:30;;;;;;;29.13;17.30;;;;;;;;;;4982834;28;20036;-67
2022/01/22 16:23:56;;;;;;;35.67;16.98;;;;;;;;;;4991992;28;20118;-67
2022/01/22 16:26:22;;;;;;;28.73;15.70;;;;;;;;;;4985813;28;20034;-67
2022/01/22 16:28:48;;;;;;;32.15;17.65;;;;;;;;;;4977557;28;20030;-68
2022/01/22 16:31:15;;;;;;;37.45;15.70;;;;;;;;;;4982209;28;20159;-67
2022/01/22 16:33:41;;;;;;;31.05;16.00;;;;;;;;;;4999428;28;20026;-68